The Lakes, Nevada
Current Conditions -  °F | °C
As of 5:53 AM on Friday 24 Oct 2014 (Local Time) from KVGT Reporting Station
Clear Clear  
Wind Chill: 60°   Ceiling: Unl
Heat Index: 60°   Visibility: 10mi
Dew Point: 37°   Wind: 0mph
Humidity: 42%   Direction: NA
Pressure: 30.06"   Gusts: NA
Location:  36.14°N, 115.29°W
Report Text: KVGT 241253Z 00000KT 10SM CLR 16/03 A3006 RMK AO2 SLP180 T01560028 $
Loading
Personal Weather Stations






























Interactive Weather Map
Tropical Storm Tracking
New forecast layout! Learn more

10-Day Weather Forecast

Advertisements
Track Severe Weather on mobile